Time;durP1;ratioP1;P1;durP2;ratioP2;P2;SDS_P1;SDS_P2;PMS_P1;PMS_P2;Temp;Humidity;BMP_temperature;BMP_pressure;BME280_temperature;BME280_humidity;BME280_pressure;Samples;Min_cycle;Max_cycle;Signal;HPM_P1;HPM_P2
2022/07/31 00:01:29;;;;;;;4.57;2.22;;;22.00;82.60;;;;;;4936214;29;20095;-50
2022/07/31 00:03:55;;;;;;;4.25;2.33;;;22.00;82.40;;;;;;4936106;29;20107;-51
2022/07/31 00:06:20;;;;;;;12.18;8.30;;;22.00;80.80;;;;;;4936279;29;20036;-52
2022/07/31 00:08:48;;;;;;;7.20;5.13;;;22.00;81.00;;;;;;4936245;29;20055;-49
2022/07/31 00:11:13;;;;;;;3.88;2.78;;;22.10;80.60;;;;;;4936077;29;20028;-51
2022/07/31 00:13:39;;;;;;;2.22;2.13;;;22.10;81.80;;;;;;4935668;29;20114;-53
2022/07/31 00:16:05;;;;;;;3.25;1.90;;;22.10;82.70;;;;;;4935913;29;20031;-50
2022/07/31 00:18:32;;;;;;;5.80;2.10;;;22.00;82.80;;;;;;4935892;29;20031;-50
2022/07/31 00:20:58;;;;;;;4.30;2.50;;;22.00;82.90;;;;;;4935858;29;20103;-48
2022/07/31 00:23:23;;;;;;;2.55;2.10;;;22.00;83.20;;;;;;4935485;29;20549;-51
2022/07/31 00:25:49;;;;;;;3.17;2.00;;;22.00;82.70;;;;;;4936166;29;20035;-54
2022/07/31 00:28:14;;;;;;;3.63;2.20;;;22.00;83.00;;;;;;4935930;29;20023;-52
2022/07/31 00:30:40;;;;;;;2.67;2.00;;;22.00;81.90;;;;;;4936034;29;20036;-50
2022/07/31 00:33:05;;;;;;;4.20;2.38;;;22.00;81.50;;;;;;4938244;29;20111;-52
2022/07/31 00:35:31;;;;;;;4.32;2.15;;;21.90;81.40;;;;;;4936592;29;20035;-55
2022/07/31 00:37:56;;;;;;;3.55;2.00;;;21.80;81.90;;;;;;4937152;29;20027;-53
2022/07/31 00:40:22;;;;;;;2.80;2.28;;;21.80;81.00;;;;;;4934252;29;20027;-53
2022/07/31 00:42:48;;;;;;;3.00;2.40;;;21.80;83.00;;;;;;4935516;29;20028;-49
2022/07/31 00:45:13;;;;;;;3.70;2.25;;;21.80;84.70;;;;;;4934893;29;20183;-55
2022/07/31 00:47:39;;;;;;;6.72;2.15;;;21.80;85.00;;;;;;4935513;29;20591;-55
2022/07/31 00:50:05;;;;;;;4.45;2.75;;;21.80;84.00;;;;;;4935392;29;20023;-55
2022/07/31 00:52:31;;;;;;;3.72;2.42;;;21.80;83.50;;;;;;4935309;29;20105;-51
2022/07/31 00:54:56;;;;;;;6.97;2.70;;;21.80;84.10;;;;;;4934962;29;20083;-54
2022/07/31 00:57:22;;;;;;;4.60;2.20;;;21.90;83.60;;;;;;4935071;29;20048;-51
2022/07/31 00:59:47;;;;;;;7.75;2.65;;;21.80;83.20;;;;;;4935195;29;20039;-54
2022/07/31 01:02:13;;;;;;;6.60;2.50;;;21.80;82.90;;;;;;4935086;29;20242;-52
2022/07/31 01:04:38;;;;;;;4.50;2.03;;;21.80;84.50;;;;;;4934769;29;20027;-53
2022/07/31 01:07:04;;;;;;;4.30;2.13;;;21.70;86.20;;;;;;4934500;29;20048;-52
2022/07/31 01:09:30;;;;;;;3.30;2.10;;;21.70;86.70;;;;;;4934911;29;20035;-54
2022/07/31 01:12:17;;;;;;;2.78;2.28;;;21.70;86.80;;;;;;4934966;29;20028;-53
2022/07/31 01:14:54;;;;;;;5.90;2.10;;;21.60;86.70;;;;;;4934586;29;20110;-54
2022/07/31 01:17:22;;;;;;;3.13;2.40;;;21.60;87.40;;;;;;4934831;29;20035;-50
2022/07/31 01:19:49;;;;;;;2.35;1.92;;;21.60;88.00;;;;;;4934841;29;20028;-53
2022/07/31 01:22:33;;;;;;;5.85;2.80;;;21.60;88.30;;;;;;4934753;29;20023;-54
2022/07/31 01:25:22;;;;;;;3.15;2.35;;;21.60;88.10;;;;;;4934494;29;20094;-53
2022/07/31 01:28:03;;;;;;;3.83;2.40;;;21.60;88.10;;;;;;4934856;29;20031;-54
2022/07/31 01:30:35;;;;;;;2.20;2.10;;;21.60;87.90;;;;;;4934664;29;20421;-51
2022/07/31 01:33:08;;;;;;;9.70;3.50;;;21.60;88.00;;;;;;4934487;29;20035;-54
2022/07/31 01:35:44;;;;;;;7.95;2.40;;;21.60;88.50;;;;;;4934510;29;20034;-53
2022/07/31 01:38:26;;;;;;;5.90;2.33;;;21.60;88.70;;;;;;4934579;29;20059;-52
2022/07/31 01:41:03;;;;;;;6.03;3.03;;;21.50;89.20;;;;;;4934404;29;20138;-52
2022/07/31 01:43:32;;;;;;;10.18;3.28;;;21.50;89.70;;;;;;4934269;29;20031;-54
2022/07/31 01:46:01;;;;;;;10.77;3.00;;;21.40;89.60;;;;;;4934311;29;20032;-55
2022/07/31 01:48:27;;;;;;;5.93;2.80;;;21.40;90.10;;;;;;4934482;29;20039;-53
2022/07/31 01:50:55;;;;;;;9.02;2.45;;;21.30;90.50;;;;;;4934725;29;20040;-54
2022/07/31 01:53:23;;;;;;;4.30;2.83;;;21.30;90.70;;;;;;4934068;29;20028;-54
2022/07/31 01:55:51;;;;;;;2.55;2.33;;;21.30;90.90;;;;;;4934608;29;20139;-54
2022/07/31 01:58:19;;;;;;;5.93;2.58;;;21.30;91.10;;;;;;4934329;29;20028;-52
2022/07/31 02:00:45;;;;;;;8.02;3.15;;;21.20;91.30;;;;;;4934677;29;20465;-52
2022/07/31 02:03:13;;;;;;;6.50;2.88;;;21.10;91.50;;;;;;4934146;29;20024;-50
2022/07/31 02:05:41;;;;;;;5.88;3.13;;;21.00;91.70;;;;;;4934238;29;20448;-53
2022/07/31 02:08:09;;;;;;;3.60;2.72;;;20.90;92.30;;;;;;4934350;29;20095;-54
2022/07/31 02:10:37;;;;;;;4.53;2.63;;;20.90;92.60;;;;;;4932986;29;20441;-53
2022/07/31 02:13:04;;;;;;;6.32;2.40;;;20.80;92.90;;;;;;4934241;29;20043;-48
2022/07/31 02:15:31;;;;;;;8.55;2.72;;;20.80;92.90;;;;;;4933998;29;20039;-50
2022/07/31 02:17:58;;;;;;;7.63;2.60;;;20.80;93.10;;;;;;4934846;29;20020;-51
2022/07/31 02:20:26;;;;;;;5.93;2.55;;;20.80;93.50;;;;;;4938024;29;20032;-51
2022/07/31 02:22:52;;;;;;;4.50;2.40;;;20.70;93.50;;;;;;4938219;29;20023;-49
2022/07/31 02:25:18;;;;;;;3.83;2.72;;;20.70;93.40;;;;;;4937711;29;20047;-51
2022/07/31 02:27:45;;;;;;;5.22;2.95;;;20.70;93.40;;;;;;4938259;29;20024;-52
2022/07/31 02:30:12;;;;;;;7.10;2.70;;;20.60;93.10;;;;;;4937866;29;20058;-51
2022/07/31 02:32:38;;;;;;;6.25;2.97;;;20.60;93.30;;;;;;4937793;29;20059;-49
2022/07/31 02:35:06;;;;;;;3.67;2.85;;;20.60;93.30;;;;;;4937352;29;20020;-49
2022/07/31 02:37:35;;;;;;;2.95;2.65;;;20.60;92.90;;;;;;4937646;29;20016;-54
2022/07/31 02:40:03;;;;;;;7.38;3.10;;;20.60;92.70;;;;;;4937675;29;20024;-54
2022/07/31 02:42:29;;;;;;;4.15;2.70;;;20.60;91.80;;;;;;4937491;29;20496;-54
2022/07/31 02:44:55;;;;;;;4.57;2.70;;;20.60;91.70;;;;;;4937191;29;20039;-55
2022/07/31 02:47:22;;;;;;;5.63;3.05;;;20.60;91.60;;;;;;4937297;29;20069;-51
2022/07/31 02:49:48;;;;;;;8.95;3.40;;;20.50;91.30;;;;;;4937826;29;20482;-50
2022/07/31 02:52:14;;;;;;;3.75;2.80;;;20.50;91.70;;;;;;4937487;29;20034;-53
2022/07/31 02:54:41;;;;;;;8.93;3.78;;;20.50;92.00;;;;;;4937381;29;20028;-52
2022/07/31 02:57:06;;;;;;;5.28;3.00;;;20.40;91.10;;;;;;4937050;29;20028;-51
2022/07/31 02:59:36;;;;;;;4.70;2.72;;;20.40;90.80;;;;;;4936859;29;20433;-54
2022/07/31 03:02:02;;;;;;;5.55;2.45;;;20.30;90.80;;;;;;4937130;29;20028;-54
2022/07/31 03:04:28;;;;;;;3.35;2.90;;;20.30;91.10;;;;;;4936987;29;20026;-52
2022/07/31 03:06:54;;;;;;;7.90;2.90;;;20.30;91.40;;;;;;4937197;29;20023;-53
2022/07/31 03:09:20;;;;;;;2.90;2.63;;;20.30;92.30;;;;;;4937202;29;20110;-53
2022/07/31 03:11:46;;;;;;;3.03;2.72;;;20.20;93.90;;;;;;4937208;29;20115;-50
2022/07/31 03:14:12;;;;;;;4.82;3.42;;;20.20;94.50;;;;;;4936679;29;20031;-54
2022/07/31 03:16:39;;;;;;;6.35;2.45;;;20.10;94.70;;;;;;4937012;29;20398;-50
2022/07/31 03:19:07;;;;;;;4.55;2.83;;;20.20;94.90;;;;;;4936898;29;20110;-54
2022/07/31 03:21:34;;;;;;;4.45;2.75;;;20.10;93.90;;;;;;4937234;29;20503;-54
2022/07/31 03:24:01;;;;;;;4.78;2.85;;;20.10;94.20;;;;;;4936914;29;20036;-52
2022/07/31 03:26:27;;;;;;;4.88;3.47;;;20.10;94.80;;;;;;4936964;29;20493;-52
2022/07/31 03:28:53;;;;;;;3.97;3.00;;;20.10;95.30;;;;;;4936697;29;20035;-55
2022/07/31 03:31:18;;;;;;;5.57;3.05;;;20.00;95.60;;;;;;4935732;29;20023;-53
2022/07/31 03:33:44;;;;;;;7.22;2.60;;;20.00;95.90;;;;;;4936547;29;20035;-51
2022/07/31 03:36:10;;;;;;;7.45;3.30;;;19.90;96.10;;;;;;4936731;29;20153;-50
2022/07/31 03:38:35;;;;;;;3.22;2.88;;;19.90;96.10;;;;;;4936704;29;20032;-54
2022/07/31 03:41:01;;;;;;;4.53;2.95;;;19.90;96.30;;;;;;4936813;29;20032;-50
2022/07/31 03:43:29;;;;;;;5.63;2.70;;;19.90;96.40;;;;;;4936480;29;20062;-53
2022/07/31 03:45:56;;;;;;;4.13;3.50;;;19.90;96.50;;;;;;4936629;29;20086;-53
2022/07/31 03:48:22;;;;;;;5.72;3.50;;;19.90;97.00;;;;;;4936486;29;20481;-56
2022/07/31 03:50:48;;;;;;;5.68;3.30;;;19.80;97.60;;;;;;4936361;29;20047;-52
2022/07/31 03:53:13;;;;;;;4.78;3.28;;;19.80;97.60;;;;;;4936060;29;20031;-48
2022/07/31 03:55:41;;;;;;;3.15;2.85;;;19.70;98.10;;;;;;4936342;29;20083;-51
2022/07/31 03:58:07;;;;;;;5.18;2.97;;;19.70;98.30;;;;;;4936265;29;20023;-54
2022/07/31 04:00:33;;;;;;;7.05;3.00;;;19.80;98.30;;;;;;4936112;29;20036;-52
2022/07/31 04:03:08;;;;;;;7.13;3.22;;;19.80;98.30;;;;;;4936158;29;20020;-52
2022/07/31 04:05:33;;;;;;;9.90;3.30;;;19.80;98.50;;;;;;4937135;29;20028;-50
2022/07/31 04:07:59;;;;;;;12.38;4.47;;;19.80;98.20;;;;;;4934882;29;20089;-50
2022/07/31 04:10:25;;;;;;;7.10;3.72;;;19.80;97.90;;;;;;4936078;29;20024;-53
2022/07/31 04:12:50;;;;;;;16.27;4.80;;;19.80;98.00;;;;;;4935921;29;20067;-51
2022/07/31 04:15:16;;;;;;;9.20;3.85;;;19.70;98.30;;;;;;4935554;29;20151;-49
2022/07/31 04:17:42;;;;;;;6.55;3.80;;;19.60;98.50;;;;;;4935881;29;20433;-55
2022/07/31 04:20:08;;;;;;;6.30;3.65;;;19.60;98.50;;;;;;4935791;29;20445;-54
2022/07/31 04:22:34;;;;;;;6.35;4.05;;;19.60;98.50;;;;;;4935710;29;20024;-54
2022/07/31 04:24:59;;;;;;;6.78;4.32;;;19.60;98.70;;;;;;4935452;29;20024;-56
2022/07/31 04:27:25;;;;;;;11.40;3.88;;;19.60;99.00;;;;;;4935801;29;20485;-50
2022/07/31 04:29:50;;;;;;;8.07;3.45;;;19.60;98.90;;;;;;4935664;29;20218;-53
2022/07/31 04:32:16;;;;;;;8.05;3.42;;;19.60;99.10;;;;;;4935704;29;20024;-51
2022/07/31 04:34:41;;;;;;;4.95;3.13;;;19.70;99.10;;;;;;4933981;29;20037;-52
2022/07/31 04:37:07;;;;;;;3.60;3.20;;;19.70;99.00;;;;;;4935864;29;20031;-49
2022/07/31 04:39:33;;;;;;;12.23;3.83;;;19.80;98.90;;;;;;4935465;29;20149;-51
2022/07/31 04:41:58;;;;;;;8.32;3.00;;;19.90;99.00;;;;;;4934632;29;20078;-52
2022/07/31 04:44:24;;;;;;;8.30;4.20;;;20.00;99.20;;;;;;4935159;29;20027;-54
2022/07/31 04:46:49;;;;;;;6.07;3.90;;;20.00;99.10;;;;;;4935322;29;20118;-54
2022/07/31 04:49:15;;;;;;;8.13;4.70;;;20.10;98.60;;;;;;4935452;29;20023;-53
2022/07/31 04:51:41;;;;;;;4.93;4.05;;;20.20;98.20;;;;;;4935282;29;20508;-54
2022/07/31 04:54:07;;;;;;;6.22;3.17;;;20.10;98.40;;;;;;4934958;29;20028;-51
2022/07/31 04:56:34;;;;;;;6.03;3.55;;;20.10;98.80;;;;;;4935273;29;20043;-54
2022/07/31 04:59:06;;;;;;;5.82;3.72;;;20.10;99.00;;;;;;4935138;29;20027;-52
2022/07/31 05:01:32;;;;;;;4.57;3.30;;;20.10;99.00;;;;;;4935004;29;20098;-53
2022/07/31 05:03:58;;;;;;;5.95;3.45;;;20.20;99.10;;;;;;4934845;29;20051;-54
2022/07/31 05:06:33;;;;;;;4.20;2.92;;;20.30;98.70;;;;;;4935013;29;20494;-55
2022/07/31 05:08:58;;;;;;;9.63;3.17;;;20.30;98.30;;;;;;4935253;29;20500;-50
2022/07/31 05:11:24;;;;;;;4.05;2.78;;;20.40;98.00;;;;;;4934825;29;20044;-54
2022/07/31 05:13:55;;;;;;;7.63;2.72;;;20.40;97.30;;;;;;4934640;29;20114;-53
2022/07/31 05:16:22;;;;;;;5.35;3.22;;;20.40;97.10;;;;;;4933480;29;20032;-53
2022/07/31 05:18:48;;;;;;;9.60;3.00;;;20.40;96.20;;;;;;4935086;29;20035;-54
2022/07/31 05:21:15;;;;;;;3.95;2.85;;;20.40;96.30;;;;;;4934702;29;20030;-54
2022/07/31 05:23:43;;;;;;;2.85;2.63;;;20.30;95.80;;;;;;4934324;29;20408;-54
2022/07/31 05:26:09;;;;;;;4.18;2.55;;;20.40;95.30;;;;;;4934784;29;20512;-54
2022/07/31 05:28:36;;;;;;;3.38;2.33;;;20.40;94.90;;;;;;4935254;29;20584;-51
2022/07/31 05:31:02;;;;;;;3.35;2.65;;;20.40;95.00;;;;;;4934679;29;20346;-50
2022/07/31 05:33:27;;;;;;;2.90;2.63;;;20.20;95.40;;;;;;4934384;29;20027;-50
2022/07/31 05:35:54;;;;;;;3.42;2.50;;;20.20;95.20;;;;;;4934720;29;20032;-53
2022/07/31 05:38:20;;;;;;;6.22;2.60;;;20.10;95.30;;;;;;4934827;29;20437;-53
2022/07/31 05:40:45;;;;;;;3.22;2.83;;;20.20;95.40;;;;;;4934368;29;20035;-57
2022/07/31 05:43:11;;;;;;;4.18;2.78;;;20.20;95.40;;;;;;4932853;29;20036;-54
2022/07/31 05:45:37;;;;;;;5.47;2.63;;;20.20;95.80;;;;;;4934398;29;20066;-50
2022/07/31 05:48:03;;;;;;;5.28;2.72;;;20.30;96.00;;;;;;4934490;29;20023;-52
2022/07/31 05:50:29;;;;;;;2.72;2.53;;;20.30;96.50;;;;;;4934362;29;20081;-53
2022/07/31 05:52:54;;;;;;;8.93;2.95;;;20.30;97.10;;;;;;4934050;29;20115;-55
2022/07/31 05:55:20;;;;;;;3.72;3.20;;;20.40;96.70;;;;;;4933845;29;20437;-53
2022/07/31 05:57:46;;;;;;;6.70;2.97;;;20.40;96.40;;;;;;4934328;29;20031;-50
2022/07/31 06:00:12;;;;;;;6.80;2.97;;;20.40;96.50;;;;;;4934177;29;20059;-48
2022/07/31 06:02:38;;;;;;;3.80;3.38;;;20.40;96.60;;;;;;4933003;29;20111;-50
2022/07/31 06:05:04;;;;;;;5.57;3.13;;;20.40;96.70;;;;;;4933874;29;20058;-51
2022/07/31 06:07:29;;;;;;;7.20;3.13;;;20.40;96.80;;;;;;4934196;29;20094;-53
2022/07/31 06:09:55;;;;;;;4.07;2.92;;;20.40;96.70;;;;;;4934154;29;20027;-55
2022/07/31 06:12:20;;;;;;;7.72;3.10;;;20.50;96.70;;;;;;4934176;29;20043;-52
2022/07/31 06:14:46;;;;;;;3.75;2.88;;;20.50;96.80;;;;;;4933745;29;20040;-51
2022/07/31 06:17:11;;;;;;;4.72;3.38;;;20.50;96.70;;;;;;4934126;29;20032;-50
2022/07/31 06:19:37;;;;;;;4.20;2.90;;;20.60;96.70;;;;;;4934122;29;20489;-50
2022/07/31 06:22:03;;;;;;;6.07;3.03;;;20.60;96.70;;;;;;4934120;29;20024;-50
2022/07/31 06:24:28;;;;;;;6.38;2.63;;;20.60;96.50;;;;;;4933747;29;20032;-53
2022/07/31 06:27:01;;;;;;;3.92;3.10;;;20.70;96.70;;;;;;4933955;29;20060;-52
2022/07/31 06:29:27;;;;;;;5.00;2.95;;;20.70;96.40;;;;;;4934111;29;20374;-51
2022/07/31 06:31:56;;;;;;;3.58;2.75;;;20.70;96.20;;;;;;4935766;29;20039;-50
2022/07/31 06:34:22;;;;;;;6.10;2.90;;;20.70;96.40;;;;;;4947385;29;20099;-50
2022/07/31 06:36:48;;;;;;;3.30;2.80;;;20.80;96.30;;;;;;4948100;29;20027;-48
2022/07/31 06:39:14;;;;;;;5.40;2.90;;;20.90;96.30;;;;;;4941230;28;20027;-49
2022/07/31 06:41:48;;;;;;;6.55;2.45;;;21.00;96.30;;;;;;4943456;29;20056;-53
2022/07/31 06:44:15;;;;;;;5.63;2.35;;;21.20;96.20;;;;;;4943121;29;20027;-51
2022/07/31 06:46:41;;;;;;;2.50;2.30;;;21.30;95.80;;;;;;4936995;29;20042;-52
2022/07/31 06:49:07;;;;;;;6.00;2.55;;;21.40;95.90;;;;;;4934070;29;20028;-49
2022/07/31 06:51:33;;;;;;;2.85;2.22;;;21.50;95.70;;;;;;4935278;29;20497;-50
2022/07/31 06:54:00;;;;;;;4.88;3.95;;;21.60;95.50;;;;;;4937082;29;20040;-50
2022/07/31 06:56:26;;;;;;;7.75;2.80;;;21.60;94.70;;;;;;4933541;29;20144;-47
2022/07/31 06:58:52;;;;;;;3.85;2.80;;;21.70;95.30;;;;;;4933679;29;20059;-48
2022/07/31 07:01:17;;;;;;;6.40;2.92;;;21.70;95.20;;;;;;4933668;29;20066;-52
2022/07/31 07:03:43;;;;;;;3.60;2.38;;;21.70;94.80;;;;;;4933665;29;20072;-52
2022/07/31 07:06:08;;;;;;;6.97;3.17;;;21.70;94.90;;;;;;4935665;29;20296;-49
2022/07/31 07:08:34;;;;;;;5.07;2.55;;;21.80;94.50;;;;;;4937151;29;20028;-48
2022/07/31 07:10:59;;;;;;;5.82;2.70;;;21.80;94.60;;;;;;4931612;29;20051;-53
2022/07/31 07:13:28;;;;;;;2.60;2.40;;;21.90;94.40;;;;;;4917847;29;20099;-49
2022/07/31 07:15:53;;;;;;;5.05;2.83;;;22.00;94.20;;;;;;4952370;28;20488;-47
2022/07/31 07:18:20;;;;;;;3.50;3.20;;;22.10;94.00;;;;;;4952709;28;20046;-49
2022/07/31 07:20:46;;;;;;;4.93;2.45;;;22.30;94.00;;;;;;4951584;28;20029;-56
2022/07/31 07:23:12;;;;;;;7.10;2.53;;;22.50;93.90;;;;;;4954752;28;20057;-49
2022/07/31 07:25:38;;;;;;;4.78;2.50;;;22.80;93.80;;;;;;4938966;28;20028;-48
2022/07/31 07:28:03;;;;;;;4.57;2.55;;;23.10;93.00;;;;;;4936979;29;20034;-47
2022/07/31 07:30:29;;;;;;;5.85;2.40;;;23.50;92.10;;;;;;4937127;29;20449;-48
2022/07/31 07:32:54;;;;;;;3.45;2.50;;;23.60;91.60;;;;;;4938298;29;20079;-47
2022/07/31 07:35:20;;;;;;;3.80;2.15;;;23.50;91.50;;;;;;4936119;29;20035;-49
2022/07/31 07:37:47;;;;;;;4.78;2.58;;;23.50;91.70;;;;;;4936667;29;20020;-48
2022/07/31 07:40:13;;;;;;;2.90;2.30;;;23.40;91.70;;;;;;4936636;29;20407;-49
2022/07/31 07:42:39;;;;;;;5.47;2.67;;;23.30;91.90;;;;;;4936654;29;20110;-49
2022/07/31 07:45:05;;;;;;;4.47;2.22;;;23.30;91.60;;;;;;4936045;29;20068;-48
2022/07/31 07:47:31;;;;;;;4.38;2.40;;;23.50;91.80;;;;;;4936562;29;20034;-46
2022/07/31 07:49:56;;;;;;;4.50;2.80;;;24.00;91.30;;;;;;4936492;29;20027;-47
2022/07/31 07:52:22;;;;;;;6.57;2.70;;;24.40;90.50;;;;;;4936528;29;20159;-45
2022/07/31 07:54:47;;;;;;;6.50;2.42;;;24.60;90.30;;;;;;4935977;29;20038;-47
2022/07/31 07:57:17;;;;;;;3.33;2.40;;;24.70;90.90;;;;;;4936288;29;20035;-47
2022/07/31 07:59:43;;;;;;;4.43;2.70;;;24.80;90.80;;;;;;4936382;29;20031;-51
2022/07/31 08:02:09;;;;;;;5.60;2.35;;;24.40;91.40;;;;;;4936189;29;20035;-48
2022/07/31 08:04:34;;;;;;;8.18;2.50;;;24.20;91.20;;;;;;4935893;29;20055;-49
2022/07/31 08:07:00;;;;;;;6.00;2.75;;;24.00;91.00;;;;;;4936176;29;20500;-48
2022/07/31 08:09:26;;;;;;;8.30;2.38;;;23.80;91.00;;;;;;4936126;29;20035;-48
2022/07/31 08:11:51;;;;;;;2.75;2.22;;;23.70;91.00;;;;;;4936001;29;20032;-49
2022/07/31 08:14:17;;;;;;;4.00;2.60;;;23.60;90.90;;;;;;4935749;29;20039;-46
2022/07/31 08:16:42;;;;;;;3.25;2.30;;;23.50;90.70;;;;;;4935885;29;20039;-48
2022/07/31 08:19:08;;;;;;;7.20;3.05;;;23.40;91.10;;;;;;4936144;29;20088;-52
2022/07/31 08:21:34;;;;;;;3.97;3.10;;;23.40;91.40;;;;;;4935826;29;20093;-51
2022/07/31 08:24:00;;;;;;;3.97;2.22;;;23.40;91.60;;;;;;4935430;29;20107;-46
2022/07/31 08:26:25;;;;;;;7.82;2.50;;;23.40;91.80;;;;;;4936875;29;20035;-46
2022/07/31 08:28:51;;;;;;;8.07;3.30;;;23.40;92.00;;;;;;4941678;29;20023;-48
2022/07/31 08:31:18;;;;;;;12.15;3.13;;;23.50;92.00;;;;;;4943924;29;20039;-51
2022/07/31 08:33:43;;;;;;;4.93;2.63;;;23.60;91.50;;;;;;4938883;29;20099;-49
2022/07/31 08:36:09;;;;;;;6.43;2.70;;;23.70;91.30;;;;;;4945320;28;20528;-47
2022/07/31 08:38:35;;;;;;;8.02;2.70;;;23.90;90.80;;;;;;4947088;29;20028;-52
2022/07/31 08:41:01;;;;;;;5.97;2.70;;;24.10;90.30;;;;;;4935287;29;20036;-48
2022/07/31 08:43:29;;;;;;;6.93;2.72;;;24.20;90.30;;;;;;4946784;29;20507;-49
2022/07/31 08:45:55;;;;;;;5.07;2.60;;;24.50;89.30;;;;;;4936953;29;20115;-49
2022/07/31 08:48:23;;;;;;;4.10;3.28;;;24.70;89.30;;;;;;4944865;28;20024;-50
2022/07/31 08:50:50;;;;;;;4.35;2.80;;;24.90;87.20;;;;;;4947932;29;20027;-47
2022/07/31 08:53:17;;;;;;;5.20;3.00;;;25.10;87.40;;;;;;4937341;29;20051;-50
2022/07/31 08:55:43;;;;;;;4.93;2.95;;;25.40;88.30;;;;;;4936451;29;20481;-50
2022/07/31 08:58:09;;;;;;;4.20;2.75;;;25.70;86.30;;;;;;4938814;29;20026;-49
2022/07/31 09:00:34;;;;;;;8.48;2.15;;;26.10;83.90;;;;;;4938711;29;20126;-51
2022/07/31 09:03:01;;;;;;;5.78;2.80;;;26.50;85.10;;;;;;4939191;29;20031;-47
2022/07/31 09:05:26;;;;;;;3.50;2.45;;;26.80;83.50;;;;;;4939540;29;20034;-51
2022/07/31 09:07:53;;;;;;;8.57;2.72;;;27.20;82.70;;;;;;4937862;29;20119;-49
2022/07/31 09:10:24;;;;;;;6.72;3.28;;;27.50;81.50;;;;;;4939227;29;20250;-47
2022/07/31 09:12:50;;;;;;;4.30;2.80;;;27.70;78.70;;;;;;4937895;29;20090;-45
2022/07/31 09:15:29;;;;;;;4.93;2.88;;;27.70;78.00;;;;;;4938803;28;20019;-51
2022/07/31 09:17:55;;;;;;;6.13;3.53;;;27.70;78.00;;;;;;4944517;28;20016;-50
2022/07/31 09:20:28;;;;;;;5.97;3.05;;;27.90;77.50;;;;;;4938978;29;20028;-46
2022/07/31 09:23:23;;;;;;;6.68;3.00;;;27.90;76.90;;;;;;4935214;29;20492;-46
2022/07/31 09:25:51;;;;;;;7.20;3.53;;;27.80;77.70;;;;;;4933313;29;20043;-48
2022/07/31 09:28:17;;;;;;;11.48;3.30;;;27.70;77.90;;;;;;4934845;29;20031;-49
2022/07/31 09:30:53;;;;;;;4.32;3.20;;;27.50;77.00;;;;;;4943554;29;20042;-52
2022/07/31 09:33:20;;;;;;;41.17;33.72;;;27.50;76.90;;;;;;4946831;28;20038;-49
2022/07/31 09:35:48;;;;;;;41.67;28.33;;;27.50;78.00;;;;;;4937376;29;20028;-49
2022/07/31 09:38:14;;;;;;;35.38;25.85;;;27.20;78.00;;;;;;4937579;29;20146;-51
2022/07/31 09:40:42;;;;;;;6.82;3.20;;;27.20;78.20;;;;;;4936984;29;20529;-46
2022/07/31 09:43:18;;;;;;;8.43;3.65;;;27.20;78.60;;;;;;4942772;29;20023;-54
2022/07/31 09:45:45;;;;;;;4.80;2.85;;;27.00;77.00;;;;;;4943438;28;20043;-49
2022/07/31 09:48:11;;;;;;;5.03;2.75;;;26.80;76.60;;;;;;4934963;29;20016;-45
2022/07/31 09:50:38;;;;;;;5.10;2.85;;;26.70;77.80;;;;;;4938416;29;20030;-48
2022/07/31 09:53:05;;;;;;;2.75;2.22;;;26.70;77.70;;;;;;4944037;28;20038;-46
2022/07/31 09:55:31;;;;;;;5.93;2.35;;;26.60;77.80;;;;;;4939542;28;20440;-49
2022/07/31 09:57:58;;;;;;;2.53;1.98;;;26.50;78.40;;;;;;4950127;28;20107;-51
2022/07/31 10:00:24;;;;;;;4.32;2.50;;;26.40;77.60;;;;;;4933429;29;20046;-49
2022/07/31 10:02:53;;;;;;;3.30;2.22;;;26.30;78.90;;;;;;4934606;29;20083;-47
2022/07/31 10:05:21;;;;;;;7.18;2.42;;;26.30;77.20;;;;;;4934408;29;20020;-47
2022/07/31 10:07:48;;;;;;;4.13;2.00;;;26.30;77.30;;;;;;4937000;29;20091;-46
2022/07/31 10:10:15;;;;;;;2.67;2.30;;;26.40;78.10;;;;;;4935516;29;20031;-50
2022/07/31 10:12:47;;;;;;;4.65;1.95;;;26.30;77.80;;;;;;4947548;29;20031;-47
2022/07/31 10:15:16;;;;;;;3.13;2.00;;;26.30;76.90;;;;;;4952421;28;20028;-49
2022/07/31 10:17:46;;;;;;;2.72;2.00;;;26.30;76.70;;;;;;4949937;28;20059;-47
2022/07/31 10:20:20;;;;;;;3.63;2.60;;;26.30;77.50;;;;;;4936728;28;20557;-51
2022/07/31 10:22:47;;;;;;;3.35;2.63;;;26.40;77.50;;;;;;4934387;29;20056;-48
2022/07/31 10:25:23;;;;;;;3.92;2.50;;;26.50;76.40;;;;;;4946833;28;20504;-47
2022/07/31 10:27:49;;;;;;;6.07;2.10;;;26.70;76.80;;;;;;4939583;28;20031;-48
2022/07/31 10:30:14;;;;;;;5.05;2.20;;;26.80;76.70;;;;;;4934914;29;20059;-47
2022/07/31 10:32:40;;;;;;;4.80;2.50;;;26.90;76.30;;;;;;4934969;29;20043;-49
2022/07/31 10:35:07;;;;;;;3.45;2.05;;;27.10;75.80;;;;;;4934191;29;20039;-50
2022/07/31 10:38:00;;;;;;;2.35;2.10;;;27.20;76.40;;;;;;4950458;29;20118;-49
2022/07/31 10:40:42;;;;;;;2.67;2.00;;;27.40;75.50;;;;;;4947018;28;20481;-45
2022/07/31 10:43:28;;;;;;;8.15;7.05;;;27.60;75.20;;;;;;4943510;28;20087;-45
2022/07/31 10:45:55;;;;;;;17.15;14.25;;;27.90;74.30;;;;;;4937446;29;20465;-46
2022/07/31 10:48:21;;;;;;;8.70;3.35;;;28.00;72.80;;;;;;4937663;29;20392;-44
2022/07/31 10:50:48;;;;;;;3.67;1.80;;;28.00;73.30;;;;;;4937781;29;20015;-48
2022/07/31 10:53:16;;;;;;;3.65;2.20;;;28.10;73.80;;;;;;4942780;29;20050;-47
2022/07/31 10:55:43;;;;;;;4.20;1.80;;;28.20;73.00;;;;;;4953693;28;20035;-46
2022/07/31 10:58:18;;;;;;;4.53;2.00;;;28.20;73.20;;;;;;4955555;28;20039;-46
2022/07/31 11:00:44;;;;;;;6.25;1.83;;;28.20;73.20;;;;;;4956711;28;20035;-51
2022/07/31 11:03:20;;;;;;;4.65;1.70;;;28.30;73.10;;;;;;4956248;28;20396;-46
2022/07/31 11:05:57;;;;;;;1.98;1.77;;;28.20;73.30;;;;;;4941669;28;20024;-50
2022/07/31 11:08:23;;;;;;;5.22;2.00;;;28.20;73.80;;;;;;4937689;29;20067;-46
2022/07/31 11:10:54;;;;;;;3.85;1.60;;;28.20;72.40;;;;;;4935440;29;20426;-47
2022/07/31 11:13:21;;;;;;;6.20;2.05;;;28.40;71.80;;;;;;4937131;29;20062;-49
2022/07/31 11:15:47;;;;;;;1.75;1.65;;;28.60;72.30;;;;;;4941038;29;20040;-48
2022/07/31 11:18:23;;;;;;;3.33;1.73;;;28.80;71.80;;;;;;4937395;29;20034;-50
2022/07/31 11:20:59;;;;;;;10.15;2.25;;;28.90;70.20;;;;;;4937133;29;20027;-48
2022/07/31 11:23:29;;;;;;;1.58;1.30;;;29.00;69.70;;;;;;4936949;29;20034;-48
2022/07/31 11:25:59;;;;;;;4.22;1.70;;;29.00;69.60;;;;;;4936850;29;20485;-50
2022/07/31 11:28:25;;;;;;;4.18;1.85;;;29.00;70.10;;;;;;4938680;29;20123;-49
2022/07/31 11:30:56;;;;;;;4.60;1.60;;;29.00;70.70;;;;;;4949828;28;20109;-45
2022/07/31 11:33:29;;;;;;;3.08;1.10;;;29.00;70.40;;;;;;4936743;28;20089;-45
2022/07/31 11:35:56;;;;;;;4.85;1.65;;;29.20;70.40;;;;;;4948552;28;20028;-47
2022/07/31 11:38:28;;;;;;;9.77;1.63;;;29.10;69.10;;;;;;4946629;28;20046;-50
2022/07/31 11:40:54;;;;;;;2.55;1.80;;;29.10;69.30;;;;;;4956320;29;20027;-50
2022/07/31 11:43:20;;;;;;;1.70;1.60;;;29.00;69.40;;;;;;4951738;28;20028;-51
2022/07/31 11:45:47;;;;;;;2.55;1.70;;;29.00;69.90;;;;;;4938634;29;20528;-54
2022/07/31 11:48:17;;;;;;;3.75;1.73;;;28.90;70.20;;;;;;4939034;29;20028;-49
2022/07/31 11:50:43;;;;;;;4.78;1.33;;;28.90;69.90;;;;;;4938610;29;20144;-48
2022/07/31 11:53:10;;;;;;;2.63;2.10;;;28.80;70.60;;;;;;4938840;29;20035;-46
2022/07/31 11:55:54;;;;;;;3.05;1.92;;;28.70;69.60;;;;;;4938818;29;20035;-46
2022/07/31 11:58:25;;;;;;;3.58;1.75;;;28.50;69.80;;;;;;4938964;29;20079;-48
2022/07/31 12:00:54;;;;;;;1.92;1.48;;;28.40;70.40;;;;;;4938505;29;20496;-48
2022/07/31 12:03:24;;;;;;;2.17;1.85;;;28.50;71.00;;;;;;4954368;29;20023;-48
2022/07/31 12:05:53;;;;;;;8.52;1.95;;;28.50;70.50;;;;;;4959696;28;20553;-49
2022/07/31 12:08:20;;;;;;;5.75;1.55;;;28.50;70.60;;;;;;4959938;28;20046;-49
2022/07/31 12:10:47;;;;;;;31.58;25.00;;;28.70;71.20;;;;;;4956421;28;20075;-49
2022/07/31 12:13:18;;;;;;;22.00;15.63;;;28.90;71.50;;;;;;4955717;28;20031;-49
2022/07/31 12:16:13;;;;;;;5.07;2.17;;;28.90;71.00;;;;;;4955503;28;20031;-50
2022/07/31 12:18:55;;;;;;;5.05;1.63;;;29.10;69.60;;;;;;4947988;28;20043;-52
2022/07/31 12:21:32;;;;;;;3.28;2.25;;;29.20;69.40;;;;;;4956430;28;20027;-48
2022/07/31 12:23:58;;;;;;;2.70;1.30;;;29.20;69.90;;;;;;4958292;28;20095;-49
2022/07/31 12:26:31;;;;;;;4.15;1.40;;;29.20;70.50;;;;;;4958091;28;20054;-45
2022/07/31 12:29:05;;;;;;;10.52;1.67;;;29.20;69.80;;;;;;4943884;29;20052;-47
2022/07/31 12:31:45;;;;;;;2.43;1.67;;;29.20;71.10;;;;;;4939473;29;20031;-46
2022/07/31 12:34:11;;;;;;;2.70;1.52;;;29.30;70.90;;;;;;4924119;29;20032;-47
2022/07/31 12:36:37;;;;;;;3.75;1.88;;;29.40;69.40;;;;;;4917922;29;20047;-49
2022/07/31 12:39:03;;;;;;;2.10;1.85;;;29.40;69.60;;;;;;4918430;29;20028;-46
2022/07/31 12:41:39;;;;;;;2.25;1.77;;;29.30;70.30;;;;;;4920246;29;20044;-46
2022/07/31 12:44:09;;;;;;;4.70;1.92;;;29.20;70.20;;;;;;4925505;29;20416;-47
2022/07/31 12:46:36;;;;;;;4.80;1.60;;;29.10;70.50;;;;;;4949357;29;20035;-47
2022/07/31 12:49:02;;;;;;;4.45;1.90;;;29.10;71.00;;;;;;4958870;28;20456;-46